Time;durP1;ratioP1;P1;durP2;ratioP2;P2;SDS_P1;SDS_P2;PMS_P1;PMS_P2;Temp;Humidity;BMP_temperature;BMP_pressure;BME280_temperature;BME280_humidity;BME280_pressure;Samples;Min_cycle;Max_cycle;Signal;HPM_P1;HPM_P2
2022/07/22 00:00:55;;;;;;;2.30;2.03;;;;;;;25.48;32.81;98833.44;4483840;31;20161;-71
2022/07/22 00:03:22;;;;;;;2.42;1.70;;;;;;;25.71;32.15;98836.31;4484078;32;20153;-71
2022/07/22 00:05:49;;;;;;;5.55;2.35;;;;;;;25.74;31.85;98833.16;4483738;31;20092;-71
2022/07/22 00:08:16;;;;;;;4.35;1.83;;;;;;;25.73;31.98;98834.25;4483937;32;20104;-71
2022/07/22 00:10:44;;;;;;;2.72;1.62;;;;;;;25.70;32.02;98826.66;4483681;32;20088;-71
2022/07/22 00:13:11;;;;;;;4.50;1.87;;;;;;;25.60;32.14;98828.06;4483929;31;20101;-71
2022/07/22 00:15:38;;;;;;;11.70;2.50;;;;;;;25.70;31.58;98829.34;4483736;31;20100;-71
2022/07/22 00:18:06;;;;;;;6.85;2.42;;;;;;;25.70;31.36;98830.16;4483717;32;20445;-71
2022/07/22 00:20:33;;;;;;;4.55;1.80;;;;;;;25.68;31.61;98826.91;4483411;31;20184;-71
2022/07/22 00:23:01;;;;;;;3.45;1.87;;;;;;;25.67;31.41;98827.94;4483727;31;20541;-71
2022/07/22 00:25:28;;;;;;;4.60;1.80;;;;;;;25.58;31.50;98827.47;4483581;32;20080;-71
2022/07/22 00:27:55;;;;;;;3.65;2.12;;;;;;;25.47;31.65;98836.34;4484431;31;20100;-71
2022/07/22 00:30:23;;;;;;;4.30;2.03;;;;;;;25.21;32.35;98841.06;4486098;31;20141;-71
2022/07/22 00:32:50;;;;;;;4.37;2.42;;;;;;;24.97;32.30;98851.72;4485923;31;20516;-71
2022/07/22 00:35:17;;;;;;;4.18;2.28;;;;;;;24.73;32.82;98852.72;4485854;32;20084;-71
2022/07/22 00:37:45;;;;;;;4.28;2.47;;;;;;;24.56;33.27;98853.31;4485786;32;20129;-71
2022/07/22 00:40:13;;;;;;;3.28;1.92;;;;;;;24.44;33.91;98849.75;4485855;31;20092;-71
2022/07/22 00:42:40;;;;;;;2.28;1.80;;;;;;;24.47;32.93;98851.97;4485954;31;20610;-71
2022/07/22 00:45:08;;;;;;;6.47;2.25;;;;;;;24.47;32.93;98862.69;4485924;31;20445;-71
2022/07/22 00:47:36;;;;;;;5.53;1.62;;;;;;;24.42;33.28;98863.38;4485882;31;20524;-71
2022/07/22 00:50:06;;;;;;;8.35;2.10;;;;;;;24.37;33.38;98870.44;4485393;32;20084;-71
2022/07/22 00:52:33;;;;;;;3.75;1.70;;;;;;;24.34;33.14;98870.88;4485767;31;20092;-71
2022/07/22 00:55:01;;;;;;;4.53;1.70;;;;;;;24.21;33.60;98861.12;4485808;32;20088;-71
2022/07/22 00:57:29;;;;;;;4.10;1.98;;;;;;;24.12;34.00;98863.31;4485863;31;20157;-71
2022/07/22 00:59:56;;;;;;;3.95;1.67;;;;;;;24.12;33.94;98866.00;4485621;32;20185;-71
2022/07/22 01:02:24;;;;;;;2.85;1.70;;;;;;;24.06;34.96;98862.34;4485780;31;20176;-71
2022/07/22 01:04:51;;;;;;;4.03;1.65;;;;;;;23.92;35.22;98864.34;4484468;32;20097;-71
2022/07/22 01:07:18;;;;;;;4.30;1.62;;;;;;;23.82;35.53;98871.22;4485785;31;20114;-71
2022/07/22 01:09:46;;;;;;;5.00;2.10;;;;;;;23.72;35.75;98869.03;4485692;32;20153;-71
2022/07/22 01:12:13;;;;;;;4.47;2.10;;;;;;;23.65;36.23;98868.28;4485635;31;20461;-71
2022/07/22 01:14:40;;;;;;;3.55;2.03;;;;;;;23.53;36.33;98862.84;4485674;31;20089;-71
2022/07/22 01:17:08;;;;;;;4.00;2.12;;;;;;;23.41;36.78;98862.72;4485991;32;20100;-71
2022/07/22 01:19:36;;;;;;;6.15;1.90;;;;;;;23.24;36.99;98857.13;4485277;31;20144;-71
2022/07/22 01:22:05;;;;;;;3.42;1.98;;;;;;;23.11;38.04;98862.56;4485808;31;20096;-71
2022/07/22 01:24:33;;;;;;;2.80;1.87;;;;;;;22.94;38.22;98855.03;4485593;32;20428;-71
2022/07/22 01:27:00;;;;;;;6.93;1.77;;;;;;;22.83;38.30;98864.53;4482605;31;79043;-71
2022/07/22 01:29:28;;;;;;;2.55;1.70;;;;;;;22.77;38.41;98856.56;4485784;31;20139;-71
2022/07/22 01:31:56;;;;;;;5.35;2.00;;;;;;;22.80;37.70;98856.97;4485398;32;20497;-71
2022/07/22 01:34:24;;;;;;;2.10;1.60;;;;;;;22.70;38.20;98856.59;4485475;31;20085;-71
2022/07/22 01:36:51;;;;;;;2.22;1.73;;;;;;;22.61;38.18;98853.34;4485717;31;20104;-71
2022/07/22 01:39:19;;;;;;;2.80;1.98;;;;;;;22.54;38.25;98851.75;4485540;31;20088;-71
2022/07/22 01:41:46;;;;;;;6.07;2.37;;;;;;;22.47;38.73;98852.59;4485703;31;20136;-71
2022/07/22 01:44:13;;;;;;;5.75;1.85;;;;;;;22.44;38.63;98849.56;4485462;31;20156;-71
2022/07/22 01:46:41;;;;;;;3.58;1.60;;;;;;;22.40;38.83;98845.66;4485369;31;20100;-71
2022/07/22 01:49:08;;;;;;;3.85;1.52;;;;;;;22.33;38.88;98843.84;4485319;31;20123;-71
2022/07/22 01:51:36;;;;;;;3.75;1.77;;;;;;;22.23;39.36;98843.44;4485580;31;20096;-71
2022/07/22 01:54:04;;;;;;;9.63;1.75;;;;;;;22.13;39.28;98841.22;4485678;32;20141;-71
2022/07/22 01:56:31;;;;;;;5.25;1.92;;;;;;;22.10;39.55;98841.63;4485669;31;20108;-71
2022/07/22 01:58:58;;;;;;;3.45;1.58;;;;;;;22.03;40.64;98848.84;4485441;31;20093;-71
2022/07/22 02:01:27;;;;;;;8.25;1.92;;;;;;;21.95;41.88;98844.56;4485297;31;20583;-71
2022/07/22 02:03:55;;;;;;;4.82;2.37;;;;;;;21.82;42.32;98847.25;4485813;31;20096;-71
2022/07/22 02:06:22;;;;;;;2.53;1.58;;;;;;;21.72;43.39;98855.66;4485420;31;20583;-71
2022/07/22 02:08:50;;;;;;;4.05;1.65;;;;;;;21.62;43.77;98850.75;4485611;31;20119;-71
2022/07/22 02:11:18;;;;;;;3.80;1.87;;;;;;;21.56;43.66;98856.06;4485390;31;20123;-71
2022/07/22 02:13:45;;;;;;;3.10;2.00;;;;;;;21.49;43.01;98864.06;4485533;31;20123;-71
2022/07/22 02:16:13;;;;;;;3.25;2.20;;;;;;;21.42;42.72;98869.41;4485388;32;20138;-71
2022/07/22 02:18:46;;;;;;;4.78;2.05;;;;;;;21.36;43.74;98867.56;4485292;31;20186;-71
2022/07/22 02:21:13;;;;;;;3.80;2.00;;;;;;;21.28;41.81;98865.87;4485130;31;20085;-71
2022/07/22 02:23:40;;;;;;;6.15;1.87;;;;;;;21.33;42.13;98869.78;4484956;32;20482;-71
2022/07/22 02:26:08;;;;;;;4.57;2.00;;;;;;;21.28;43.23;98865.87;4485151;32;20108;-71
2022/07/22 02:28:36;;;;;;;4.30;1.90;;;;;;;21.20;43.61;98866.09;4484950;31;20149;-71
2022/07/22 02:31:03;;;;;;;2.60;1.70;;;;;;;21.14;43.45;98863.44;4485002;31;20421;-71
2022/07/22 02:33:31;;;;;;;2.78;1.87;;;;;;;21.07;42.83;98864.25;4485363;31;20560;-71
2022/07/22 02:36:00;;;;;;;2.08;1.70;;;;;;;21.06;42.37;98870.59;4485271;32;20081;-71
2022/07/22 02:38:27;;;;;;;2.87;1.80;;;;;;;21.01;42.48;98875.69;4485172;31;20471;-71
2022/07/22 02:40:54;;;;;;;5.28;1.90;;;;;;;20.98;42.62;98873.44;4484908;31;20089;-71
2022/07/22 02:43:22;;;;;;;3.05;1.83;;;;;;;20.96;43.01;98872.81;4485062;31;20104;-71
2022/07/22 02:45:49;;;;;;;2.25;1.80;;;;;;;20.93;43.80;98867.91;4485240;31;20089;-71
2022/07/22 02:48:17;;;;;;;2.42;1.77;;;;;;;20.88;44.14;98878.34;4484842;31;20096;-71
2022/07/22 02:50:46;;;;;;;3.67;1.85;;;;;;;20.83;43.82;98878.97;4484313;31;20536;-71
2022/07/22 02:53:14;;;;;;;4.35;1.65;;;;;;;20.81;43.49;98880.97;4483673;32;20122;-71
2022/07/22 02:55:41;;;;;;;2.87;1.52;;;;;;;20.72;44.07;98872.34;4485053;31;20112;-71
2022/07/22 02:58:09;;;;;;;6.95;2.33;;;;;;;20.66;44.60;98875.81;4484845;31;20105;-71
2022/07/22 03:00:40;;;;;;;5.32;2.90;;;;;;;20.65;44.43;98876.84;4485015;31;20096;-71
2022/07/22 03:03:07;;;;;;;3.28;1.83;;;;;;;20.68;42.62;98873.78;4485111;31;20093;-70
2022/07/22 03:05:35;;;;;;;3.85;2.45;;;;;;;20.68;44.13;98878.28;4484755;31;20096;-71
2022/07/22 03:08:04;;;;;;;6.50;1.92;;;;;;;20.76;43.62;98875.44;4485035;31;20092;-71
2022/07/22 03:10:31;;;;;;;3.40;2.20;;;;;;;20.80;44.13;98881.19;4484761;31;20482;-71
2022/07/22 03:12:59;;;;;;;3.42;2.10;;;;;;;20.94;45.00;98874.88;4483639;32;20114;-71
2022/07/22 03:15:26;;;;;;;5.28;2.62;;;;;;;20.94;45.31;98874.03;4484762;31;20149;-71
2022/07/22 03:17:53;;;;;;;5.82;2.35;;;;;;;20.89;45.67;98885.31;4484579;31;20151;-71
2022/07/22 03:20:21;;;;;;;4.70;1.90;;;;;;;20.90;46.32;98878.97;4484566;32;20080;-71
2022/07/22 03:22:48;;;;;;;4.68;2.53;;;;;;;20.87;45.51;98874.84;4484697;31;20565;-71
2022/07/22 03:25:15;;;;;;;6.82;2.80;;;;;;;20.86;46.35;98885.72;4484729;31;20085;-71
2022/07/22 03:27:43;;;;;;;4.78;2.60;;;;;;;20.91;47.08;98878.75;4484254;31;20551;-71
2022/07/22 03:30:11;;;;;;;5.05;2.40;;;;;;;20.90;47.71;98884.28;4484711;32;20115;-71
2022/07/22 03:32:38;;;;;;;4.95;2.70;;;;;;;20.91;47.22;98888.59;4484535;31;20119;-71
2022/07/22 03:35:06;;;;;;;3.97;2.30;;;;;;;20.91;47.89;98891.28;4484638;32;20172;-71
2022/07/22 03:37:33;;;;;;;3.72;2.65;;;;;;;20.98;47.93;98891.28;4484640;31;20127;-71
2022/07/22 03:40:01;;;;;;;6.22;2.53;;;;;;;21.03;48.30;98897.66;4484477;32;20096;-71
2022/07/22 03:42:29;;;;;;;7.28;3.90;;;;;;;21.12;49.09;98886.78;4484357;31;20442;-71
2022/07/22 03:44:56;;;;;;;4.57;2.92;;;;;;;21.23;51.44;98896.84;4484464;32;20104;-71
2022/07/22 03:47:23;;;;;;;6.72;4.15;;;;;;;21.34;51.02;98895.44;4484244;32;20114;-71
2022/07/22 03:49:51;;;;;;;6.35;3.87;;;;;;;21.40;54.03;98900.75;4482863;32;20141;-71
2022/07/22 03:52:24;;;;;;;6.35;3.92;;;;;;;21.56;54.30;98902.25;4483361;32;20096;-71
2022/07/22 03:54:51;;;;;;;5.90;3.70;;;;;;;21.73;53.59;98904.50;4483997;31;20118;-71
2022/07/22 03:57:19;;;;;;;4.80;2.65;;;;;;;21.85;53.12;98896.66;4470144;32;20141;-71
2022/07/22 03:59:49;;;;;;;7.07;3.95;;;;;;;21.86;50.74;98891.13;4484351;31;20118;-71
2022/07/22 04:02:17;;;;;;;9.25;4.22;;;;;;;21.87;53.35;98884.75;4484350;31;20085;-71
2022/07/22 04:04:45;;;;;;;6.28;3.30;;;;;;;21.96;52.53;98883.50;4486133;31;20097;-71
2022/07/22 04:07:12;;;;;;;7.07;3.97;;;;;;;22.09;52.37;98882.69;4486391;31;20709;-71
2022/07/22 04:09:40;;;;;;;7.68;3.92;;;;;;;22.20;52.69;98883.88;4486310;31;20100;-71
2022/07/22 04:12:08;;;;;;;6.22;3.78;;;;;;;22.35;51.72;98889.00;4486179;32;20096;-71
2022/07/22 04:14:36;;;;;;;8.05;3.67;;;;;;;22.47;51.06;98887.31;4486149;31;20122;-71
2022/07/22 04:17:03;;;;;;;7.53;4.07;;;;;;;22.58;51.42;98885.00;4486030;32;20092;-71
2022/07/22 04:19:31;;;;;;;9.93;3.65;;;;;;;22.74;49.66;98883.69;4485884;32;20164;-71
2022/07/22 04:21:58;;;;;;;10.32;4.15;;;;;;;22.92;49.54;98888.31;4486245;31;20472;-71
2022/07/22 04:24:26;;;;;;;6.97;3.87;;;;;;;23.11;49.43;98878.59;4486187;32;20478;-71
2022/07/22 04:26:53;;;;;;;7.60;3.53;;;;;;;23.29;49.19;98880.50;4485944;32;20131;-71
2022/07/22 04:29:22;;;;;;;10.63;3.62;;;;;;;23.48;48.63;98876.88;4485722;32;20119;-71
2022/07/22 04:31:50;;;;;;;9.10;3.72;;;;;;;23.64;48.05;98885.38;4486122;31;20502;-71
2022/07/22 04:34:18;;;;;;;9.13;3.37;;;;;;;23.82;47.46;98884.59;4486276;32;20112;-71
2022/07/22 04:36:45;;;;;;;8.82;3.10;;;;;;;24.02;46.53;98876.41;4486220;31;20419;-71
2022/07/22 04:39:13;;;;;;;11.02;3.20;;;;;;;24.22;44.23;98874.28;4485879;32;20484;-71
2022/07/22 04:41:42;;;;;;;7.43;3.37;;;;;;;24.48;43.61;98877.69;4486147;31;20084;-71
2022/07/22 04:44:10;;;;;;;7.78;3.58;;;;;;;24.75;42.11;98877.41;4486038;32;20104;-71
2022/07/22 04:46:37;;;;;;;9.57;2.65;;;;;;;24.95;40.90;98882.47;4485995;31;20502;-71
2022/07/22 04:49:05;;;;;;;9.73;3.12;;;;;;;25.21;39.69;98873.25;4485646;32;20115;-71
2022/07/22 04:51:33;;;;;;;13.52;3.58;;;;;;;25.36;39.07;98878.19;4486109;31;20538;-71
2022/07/22 04:54:01;;;;;;;5.97;2.40;;;;;;;25.53;38.61;98875.66;4486063;31;20093;-71
2022/07/22 04:56:28;;;;;;;13.60;2.37;;;;;;;25.78;36.45;98875.41;4486049;31;20107;-71
2022/07/22 04:58:55;;;;;;;11.80;2.92;;;;;;;26.16;35.36;98879.50;4485685;32;20528;-71
2022/07/22 05:01:25;;;;;;;9.35;2.17;;;;;;;26.37;34.17;98875.38;4486003;31;20120;-71
2022/07/22 05:03:54;;;;;;;9.02;2.40;;;;;;;26.43;33.61;98881.63;4485967;31;20112;-71
2022/07/22 05:06:21;;;;;;;4.57;2.10;;;;;;;26.58;33.35;98878.44;4485819;31;20159;-71
2022/07/22 05:08:52;;;;;;;8.00;2.15;;;;;;;26.73;32.77;98884.12;4485716;32;20148;-71
2022/07/22 05:11:20;;;;;;;4.53;2.42;;;;;;;26.93;33.02;98885.56;4485817;31;20088;-71
2022/07/22 05:13:48;;;;;;;4.20;1.90;;;;;;;27.16;32.71;98891.88;4485332;31;20100;-71
2022/07/22 05:16:15;;;;;;;4.85;2.00;;;;;;;27.21;32.17;98892.78;4485601;31;20130;-71
2022/07/22 05:18:43;;;;;;;3.00;1.92;;;;;;;27.21;30.49;98892.78;4485817;32;20112;-71
2022/07/22 05:21:11;;;;;;;5.00;2.00;;;;;;;27.49;31.07;98893.00;4484418;32;20115;-71
2022/07/22 05:23:38;;;;;;;4.00;1.70;;;;;;;27.89;31.21;98892.81;4485848;32;20096;-71
2022/07/22 05:26:06;;;;;;;5.03;1.60;;;;;;;28.15;28.63;98894.00;4485982;32;20543;-71
2022/07/22 05:28:34;;;;;;;5.10;2.25;;;;;;;28.39;28.38;98898.31;4485562;31;20175;-71
2022/07/22 05:31:01;;;;;;;6.07;1.80;;;;;;;28.57;28.22;98899.88;4485487;31;20100;-71
2022/07/22 05:33:29;;;;;;;5.80;2.00;;;;;;;29.00;28.07;98906.31;4485681;31;20157;-71
2022/07/22 05:35:56;;;;;;;5.12;1.62;;;;;;;29.23;27.25;98904.37;4485719;31;20133;-71
2022/07/22 05:38:24;;;;;;;5.93;1.60;;;;;;;29.49;27.60;98908.09;4484467;31;20101;-71
2022/07/22 05:40:52;;;;;;;5.28;1.92;;;;;;;29.87;26.20;98912.47;4485578;31;20153;-71
2022/07/22 05:43:19;;;;;;;3.55;1.73;;;;;;;29.93;26.66;98907.91;4484593;32;20120;-71
2022/07/22 05:45:46;;;;;;;2.80;1.52;;;;;;;30.00;26.43;98904.97;4485575;32;20681;-71
2022/07/22 05:48:14;;;;;;;4.03;1.50;;;;;;;30.17;26.44;98902.91;4484904;31;20150;-71
2022/07/22 05:50:41;;;;;;;3.47;1.90;;;;;;;30.33;25.87;98914.59;4484512;31;20124;-71
2022/07/22 05:53:08;;;;;;;2.90;1.70;;;;;;;30.36;25.84;98914.06;4485272;31;20168;-71
2022/07/22 05:55:36;;;;;;;8.63;1.77;;;;;;;30.47;25.53;98917.66;4485443;31;20092;-71
2022/07/22 05:58:03;;;;;;;2.15;1.75;;;;;;;30.39;25.38;98913.53;4484822;31;20602;-71
2022/07/22 06:00:30;;;;;;;2.83;1.60;;;;;;;30.53;25.76;98923.91;4484014;31;20434;-70
2022/07/22 06:02:58;;;;;;;7.53;2.20;;;;;;;30.60;24.81;98910.97;4480991;32;20143;-71
2022/07/22 06:05:26;;;;;;;4.10;1.50;;;;;;;30.58;24.96;98903.13;4478110;32;20743;-71
2022/07/22 06:08:04;;;;;;;2.33;1.45;;;;;;;30.58;24.79;98910.41;4469631;32;20077;-71
2022/07/22 06:10:32;;;;;;;8.85;1.80;;;;;;;30.50;24.72;98911.72;4475759;32;20085;-71
2022/07/22 06:12:59;;;;;;;6.72;1.70;;;;;;;30.24;24.87;98911.59;4485009;31;20123;-71
2022/07/22 06:15:26;;;;;;;3.83;1.65;;;;;;;29.90;25.22;98911.94;4484812;32;20104;-71
2022/07/22 06:17:54;;;;;;;4.28;1.65;;;;;;;29.78;25.09;98915.88;4484473;32;20470;-71
2022/07/22 06:20:21;;;;;;;5.68;1.80;;;;;;;29.69;25.19;98919.06;4484427;31;20103;-71
2022/07/22 06:22:49;;;;;;;13.07;3.45;;;;;;;29.54;25.45;98913.56;4484309;32;20127;-71
2022/07/22 06:25:16;;;;;;;6.30;1.65;;;;;;;29.71;26.70;98926.91;4484381;31;20495;-71
2022/07/22 06:28:04;;;;;;;3.80;1.87;;;;;;;29.71;27.31;98924.22;4484803;31;20092;-71
2022/07/22 06:30:31;;;;;;;4.65;1.62;;;;;;;29.89;26.12;98923.03;4482570;31;20468;-71
2022/07/22 06:33:00;;;;;;;10.93;2.00;;;;;;;29.96;26.20;98920.88;4485061;32;20096;-71
2022/07/22 06:35:27;;;;;;;7.50;1.98;;;;;;;30.20;26.44;98912.38;4485028;32;20134;-71
2022/07/22 06:37:55;;;;;;;5.03;1.70;;;;;;;30.18;25.06;98919.94;4483368;31;20164;-71
2022/07/22 06:40:44;;;;;;;4.03;1.73;;;;;;;30.35;24.65;98925.16;4469492;32;20467;-71
2022/07/22 06:43:13;;;;;;;8.45;2.35;;;;;;;30.34;24.20;98923.50;4469520;32;20097;-71
2022/07/22 06:45:45;;;;;;;13.38;3.00;;;;;;;30.56;25.46;98926.09;4469780;32;20508;-71
2022/07/22 06:48:15;;;;;;;9.45;2.60;;;;;;;30.82;26.88;98921.56;4469433;32;20088;-71
2022/07/22 06:50:42;;;;;;;15.35;4.55;;;;;;;31.01;25.92;98919.19;4469304;32;20135;-71
2022/07/22 06:53:10;;;;;;;11.82;3.10;;;;;;;31.03;28.64;98916.22;4469618;32;20089;-71
2022/07/22 06:55:37;;;;;;;9.73;3.87;;;;;;;31.00;27.63;98914.88;4469408;32;20096;-71
2022/07/22 06:58:05;;;;;;;13.65;4.37;;;;;;;31.14;29.43;98909.72;4469513;32;20100;-71
2022/07/22 07:00:33;;;;;;;12.07;4.10;;;;;;;31.26;30.86;98918.41;4476270;32;20097;-71
2022/07/22 07:03:01;;;;;;;7.90;4.40;;;;;;;31.40;29.26;98909.75;4485109;31;20439;-71
2022/07/22 07:05:49;;;;;;;13.27;4.10;;;;;;;30.88;31.41;98906.97;4485081;32;20153;-71
2022/07/22 07:08:16;;;;;;;12.18;4.00;;;;;;;30.53;32.86;98907.69;4484880;32;20457;-71
2022/07/22 07:10:44;;;;;;;11.02;4.57;;;;;;;30.91;34.43;98911.03;4484989;32;20126;-71
2022/07/22 07:13:11;;;;;;;8.18;4.03;;;;;;;30.69;33.75;98917.47;4484991;31;20100;-71
2022/07/22 07:15:39;;;;;;;11.25;3.78;;;;;;;30.94;33.64;98903.19;4484874;31;20115;-71
2022/07/22 07:18:06;;;;;;;7.18;3.97;;;;;;;31.54;32.09;98908.12;4483601;32;20129;-71
2022/07/22 07:20:34;;;;;;;8.13;3.67;;;;;;;32.12;31.25;98907.00;4484261;31;20128;-71
2022/07/22 07:23:03;;;;;;;6.43;4.43;;;;;;;32.41;30.91;98907.16;4484605;31;20108;-71
2022/07/22 07:25:32;;;;;;;9.48;4.03;;;;;;;32.32;30.22;98911.53;4484795;31;20092;-71
2022/07/22 07:28:00;;;;;;;11.55;3.80;;;;;;;32.47;28.64;98908.75;4484712;31;20152;-71
2022/07/22 07:30:29;;;;;;;7.35;3.53;;;;;;;32.35;28.99;98911.78;4484638;31;20123;-71
2022/07/22 07:32:56;;;;;;;10.40;4.10;;;;;;;32.53;27.83;98914.97;4484799;32;20778;-71
2022/07/22 07:35:23;;;;;;;8.20;3.65;;;;;;;32.48;28.73;98910.37;4484406;31;20200;-71
2022/07/22 07:37:58;;;;;;;5.97;3.72;;;;;;;32.66;28.50;98917.09;4486304;32;20106;-71
2022/07/22 07:40:25;;;;;;;8.65;3.47;;;;;;;33.26;27.69;98908.06;4486397;31;20119;-71
2022/07/22 07:42:53;;;;;;;6.32;3.92;;;;;;;33.59;26.38;98908.31;4486737;31;20116;-71
2022/07/22 07:45:31;;;;;;;9.25;3.40;;;;;;;33.19;27.46;98907.53;4486618;31;20119;-71
2022/07/22 07:47:58;;;;;;;9.05;3.62;;;;;;;33.12;26.77;98915.19;4486455;31;20162;-71
2022/07/22 07:50:25;;;;;;;6.47;3.72;;;;;;;33.09;26.39;98908.44;4485965;31;20454;-71
2022/07/22 07:52:53;;;;;;;11.20;3.83;;;;;;;32.75;27.13;98905.66;4486810;31;20123;-71
2022/07/22 07:55:20;;;;;;;9.05;3.70;;;;;;;32.37;27.74;98915.03;4486634;31;20104;-71
2022/07/22 07:57:51;;;;;;;8.15;3.92;;;;;;;32.10;27.27;98909.13;4486691;31;20096;-71
2022/07/22 08:00:21;;;;;;;11.48;3.45;;;;;;;32.28;26.99;98916.72;4486550;31;20578;-71
2022/07/22 08:02:49;;;;;;;10.43;3.50;;;;;;;32.33;26.65;98913.16;4486491;31;20084;-71
2022/07/22 08:05:19;;;;;;;9.80;3.55;;;;;;;32.58;26.30;98911.41;4486459;31;20101;-72
2022/07/22 08:07:48;;;;;;;8.30;3.55;;;;;;;32.66;26.05;98906.25;4486277;31;20568;-71
2022/07/22 08:10:16;;;;;;;8.18;3.22;;;;;;;32.54;25.28;98913.88;4485945;32;20115;-71
2022/07/22 08:13:05;;;;;;;12.88;3.10;;;;;;;32.49;25.18;98916.59;4486392;31;20152;-71
2022/07/22 08:15:35;;;;;;;6.12;2.70;;;;;;;32.43;25.10;98915.84;4486528;31;20111;-72
2022/07/22 08:18:04;;;;;;;4.43;2.97;;;;;;;32.38;25.11;98903.09;4486237;31;20570;-71
2022/07/22 08:20:32;;;;;;;6.20;2.70;;;;;;;32.55;25.16;98904.63;4485961;31;20093;-71
2022/07/22 08:22:59;;;;;;;8.52;2.97;;;;;;;32.84;24.53;98901.25;4486440;31;20183;-71
2022/07/22 08:25:28;;;;;;;6.97;3.58;;;;;;;32.80;24.02;98901.03;4486371;32;20207;-71
2022/07/22 08:27:55;;;;;;;6.65;2.67;;;;;;;32.77;24.60;98895.34;4485834;31;20134;-71
2022/07/22 08:30:23;;;;;;;5.95;3.05;;;;;;;32.96;23.64;98901.75;4486119;32;20115;-71
2022/07/22 08:32:50;;;;;;;8.93;3.17;;;;;;;33.07;23.65;98906.00;4486129;31;20101;-71
2022/07/22 08:35:18;;;;;;;13.38;3.33;;;;;;;33.28;23.50;98905.88;4486085;31;20618;-71
2022/07/22 08:37:47;;;;;;;8.40;3.67;;;;;;;33.22;24.75;98907.81;4485939;31;20160;-71
2022/07/22 08:40:16;;;;;;;4.85;3.03;;;;;;;32.77;25.37;98900.78;4486304;32;20115;-71
2022/07/22 08:42:46;;;;;;;14.60;3.45;;;;;;;32.48;25.82;98904.97;4486221;31;20505;-71
2022/07/22 08:45:15;;;;;;;8.88;3.80;;;;;;;32.86;26.48;98899.09;4486172;31;20088;-71
2022/07/22 08:47:48;;;;;;;7.00;3.33;;;;;;;33.16;25.30;98906.22;4485716;31;20103;-71
2022/07/22 08:50:16;;;;;;;7.03;3.20;;;;;;;33.37;25.67;98912.31;4485208;32;20511;-71
2022/07/22 08:52:44;;;;;;;4.78;3.40;;;;;;;33.56;24.99;98906.97;4485824;31;20092;-71
2022/07/22 08:55:11;;;;;;;10.85;3.20;;;;;;;33.64;24.91;98900.12;4486149;31;20108;-71
2022/07/22 08:57:47;;;;;;;5.35;3.22;;;;;;;33.76;24.81;98906.03;4486084;31;20117;-71
2022/07/22 09:00:17;;;;;;;5.90;3.70;;;;;;;33.84;25.51;98906.47;4485725;31;20089;-71
2022/07/22 09:02:45;;;;;;;6.22;3.83;;;;;;;33.99;25.22;98914.50;4485720;31;20076;-71
2022/07/22 09:05:14;;;;;;;5.60;3.20;;;;;;;34.05;23.57;98901.63;4485913;32;20450;-71
2022/07/22 09:08:02;;;;;;;6.75;3.60;;;;;;;33.98;24.27;98904.72;4485836;31;20131;-71
2022/07/22 09:10:32;;;;;;;22.77;4.22;;;;;;;33.99;24.23;98909.06;4485685;32;20401;-71
2022/07/22 09:13:04;;;;;;;4.72;3.83;;;;;;;33.38;26.00;98908.50;4486032;31;20434;-71
2022/07/22 09:15:37;;;;;;;9.80;3.47;;;;;;;33.25;25.88;98906.44;4484423;32;20143;-71
2022/07/22 09:18:11;;;;;;;11.00;4.50;;;;;;;33.24;25.84;98904.81;4485474;31;20477;-71
2022/07/22 09:20:39;;;;;;;9.30;3.87;;;;;;;33.20;25.65;98901.03;4485203;31;20093;-71
2022/07/22 09:23:12;;;;;;;8.48;4.05;;;;;;;33.31;26.15;98901.78;4485642;31;20080;-71
2022/07/22 09:25:41;;;;;;;9.43;4.18;;;;;;;33.32;25.78;98890.63;4485896;32;20096;-71
2022/07/22 09:28:17;;;;;;;15.50;3.90;;;;;;;33.76;25.87;98895.16;4485838;31;20108;-71
2022/07/22 09:30:54;;;;;;;8.82;4.05;;;;;;;33.72;26.34;98901.41;4485472;31;20115;-71
2022/07/22 09:33:24;;;;;;;8.23;4.05;;;;;;;33.38;26.25;98896.81;4485810;32;20127;-71
2022/07/22 09:35:54;;;;;;;8.82;4.18;;;;;;;33.75;26.51;98893.53;4485602;31;20782;-71
2022/07/22 09:38:32;;;;;;;12.55;4.60;;;;;;;33.64;26.90;98891.16;4484379;32;20131;-71
2022/07/22 09:41:01;;;;;;;9.13;4.53;;;;;;;33.67;27.08;98894.09;4485514;31;20077;-71
2022/07/22 09:43:34;;;;;;;8.73;4.40;;;;;;;33.23;27.71;98889.63;4485409;31;20473;-71
2022/07/22 09:46:01;;;;;;;6.43;4.40;;;;;;;33.52;27.20;98894.25;4485740;32;20126;-71
2022/07/22 09:48:30;;;;;;;8.57;4.70;;;;;;;33.86;26.93;98888.78;4485655;31;20096;-71
2022/07/22 09:50:58;;;;;;;10.45;4.72;;;;;;;33.67;27.10;98893.31;4484984;32;20093;-71
2022/07/22 09:53:29;;;;;;;7.57;5.40;;;;;;;33.39;27.58;98893.81;4485892;31;20131;-71
2022/07/22 09:56:02;;;;;;;8.43;4.75;;;;;;;33.36;28.56;98885.44;4485716;31;20123;-71
2022/07/22 09:58:29;;;;;;;16.73;4.72;;;;;;;33.83;27.83;98883.13;4485764;31;20153;-71
2022/07/22 10:01:00;;;;;;;9.25;4.70;;;;;;;33.67;28.22;98885.97;4483972;31;20508;-71
2022/07/22 10:03:30;;;;;;;8.88;4.55;;;;;;;33.77;27.95;98877.72;4484522;32;20108;-71
2022/07/22 10:05:59;;;;;;;11.77;5.32;;;;;;;33.89;27.99;98884.69;4484444;32;20150;-71
2022/07/22 10:08:27;;;;;;;6.82;4.97;;;;;;;33.90;27.67;98878.97;4485368;31;20088;-71
2022/07/22 10:10:59;;;;;;;11.07;4.62;;;;;;;33.86;27.70;98880.63;4485288;31;20159;-71
2022/07/22 10:13:27;;;;;;;7.10;4.60;;;;;;;34.12;27.66;98874.91;4485449;31;20442;-71
2022/07/22 10:15:56;;;;;;;9.80;4.93;;;;;;;34.30;27.46;98874.16;4485648;31;20145;-71
2022/07/22 10:18:25;;;;;;;8.63;4.60;;;;;;;34.42;27.79;98873.75;4485309;31;20096;-71
2022/07/22 10:21:07;;;;;;;8.52;4.85;;;;;;;34.36;27.77;98869.47;4483805;32;20574;-71
2022/07/22 10:23:36;;;;;;;13.13;4.70;;;;;;;34.32;27.51;98868.44;4485421;31;20088;-71
2022/07/22 10:26:04;;;;;;;8.77;4.62;;;;;;;34.52;26.88;98864.66;4485543;31;20112;-71
2022/07/22 10:28:35;;;;;;;11.25;4.15;;;;;;;34.51;26.89;98870.34;4485475;31;20119;-71
2022/07/22 10:31:15;;;;;;;6.62;4.30;;;;;;;34.42;26.13;98862.06;4485116;32;20430;-71
2022/07/22 10:33:45;;;;;;;8.63;4.40;;;;;;;34.56;26.36;98865.66;4485045;31;20092;-71
2022/07/22 10:36:13;;;;;;;4.95;4.10;;;;;;;34.79;25.75;98860.47;4485107;31;20108;-71
2022/07/22 10:39:02;;;;;;;13.23;4.53;;;;;;;34.63;25.85;98868.03;4484164;32;20127;-71
2022/07/22 10:41:33;;;;;;;8.45;4.35;;;;;;;34.90;25.93;98855.69;4484981;32;20084;-71
2022/07/22 10:44:00;;;;;;;6.78;3.90;;;;;;;35.34;25.62;98857.97;4485065;31;20447;-71
2022/07/22 10:46:50;;;;;;;8.65;4.72;;;;;;;35.87;25.28;98845.06;4485050;32;20575;-71
2022/07/22 10:49:20;;;;;;;11.98;4.62;;;;;;;35.94;25.07;98861.00;4484825;31;20394;-71
2022/07/22 10:52:06;;;;;;;10.02;4.45;;;;;;;35.46;26.15;98846.59;4484921;31;20483;-71
2022/07/22 10:55:14;;;;;;;5.97;4.07;;;;;;;35.46;25.98;98843.88;4485005;31;20095;-71
2022/07/22 10:57:41;;;;;;;6.30;4.47;;;;;;;35.54;24.88;98850.56;4484824;31;20092;-71
2022/07/22 11:00:09;;;;;;;10.88;4.15;;;;;;;35.17;25.18;98846.78;4479354;32;20131;-71
2022/07/22 11:02:37;;;;;;;11.50;4.40;;;;;;;35.51;24.85;98843.78;4469014;32;20085;-71
2022/07/22 11:05:06;;;;;;;7.22;4.20;;;;;;;35.70;24.24;98845.59;4473032;32;20096;-71
2022/07/22 11:07:40;;;;;;;7.75;3.80;;;;;;;35.60;24.78;98835.72;4484878;32;20149;-71
2022/07/22 11:10:10;;;;;;;12.20;3.95;;;;;;;35.54;24.02;98837.72;4484789;31;20093;-71
2022/07/22 11:12:44;;;;;;;5.22;4.00;;;;;;;35.66;23.58;98834.50;4484274;31;20068;-71
2022/07/22 11:15:12;;;;;;;5.37;3.50;;;;;;;35.42;24.53;98831.97;4484915;31;20119;-71
2022/07/22 11:17:39;;;;;;;4.25;3.85;;;;;;;35.36;24.53;98828.50;4484789;31;20092;-71
2022/07/22 11:20:12;;;;;;;7.93;3.37;;;;;;;35.47;23.24;98834.59;4484340;31;20088;-71
2022/07/22 11:22:39;;;;;;;6.87;4.33;;;;;;;35.51;24.49;98830.16;4484603;31;20076;-71
2022/07/22 11:25:08;;;;;;;7.37;4.30;;;;;;;35.83;24.62;98827.69;4484592;31;20163;-71
2022/07/22 11:27:36;;;;;;;5.78;3.95;;;;;;;36.05;24.43;98829.69;4484769;32;20446;-72
2022/07/22 11:30:06;;;;;;;9.77;4.40;;;;;;;36.41;23.65;98827.03;4484501;32;20542;-71
2022/07/22 11:32:33;;;;;;;11.75;4.80;;;;;;;36.21;24.15;98825.50;4484440;32;20125;-71
2022/07/22 11:35:00;;;;;;;8.98;4.32;;;;;;;36.07;23.90;98822.03;4483254;32;20109;-71
2022/07/22 11:37:28;;;;;;;5.60;3.78;;;;;;;35.91;24.24;98818.78;4484471;32;20084;-71
2022/07/22 11:40:01;;;;;;;6.75;3.95;;;;;;;36.53;23.93;98817.50;4483070;32;20125;-72